createdAt,value
2018-07-01T00:00:54.517Z,10.43
2018-07-01T00:03:23.687Z,10.63
2018-07-01T00:05:52.429Z,9.77
2018-07-01T00:08:21.206Z,10.23
2018-07-01T00:10:49.992Z,10.33
2018-07-01T00:13:18.979Z,9.83
2018-07-01T00:15:47.706Z,10.07
2018-07-01T00:18:16.382Z,10.30
2018-07-01T00:20:45.115Z,10.73
2018-07-01T00:23:13.813Z,9.60
2018-07-01T00:25:42.517Z,10.03
2018-07-01T00:28:11.638Z,10.30
2018-07-01T00:30:40.393Z,10.60
2018-07-01T00:33:09.117Z,10.77
2018-07-01T00:35:38.247Z,10.83
2018-07-01T00:38:07.053Z,10.40
2018-07-01T00:40:35.830Z,10.33
2018-07-01T00:43:04.652Z,14.80
2018-07-01T00:45:39.761Z,13.07
2018-07-01T00:48:08.970Z,10.53
2018-07-01T00:50:37.773Z,10.10
2018-07-01T00:53:06.538Z,10.67
2018-07-01T00:55:35.249Z,10.17
2018-07-01T00:58:04.091Z,11.13
2018-07-01T01:00:34.766Z,10.50
2018-07-01T01:03:04.337Z,11.03
2018-07-01T01:05:33.777Z,11.33
2018-07-01T01:08:02.529Z,10.53
2018-07-01T01:10:31.271Z,11.00
2018-07-01T01:13:00.315Z,10.67
2018-07-01T01:15:29.042Z,10.80
2018-07-01T01:17:57.810Z,10.17
2018-07-01T01:20:26.629Z,12.67
2018-07-01T01:22:55.416Z,9.13
2018-07-01T01:25:24.171Z,9.77
2018-07-01T01:27:52.851Z,9.40
2018-07-01T01:30:21.979Z,11.17
2018-07-01T01:32:50.723Z,9.73
2018-07-01T01:35:19.518Z,8.93
2018-07-01T01:37:48.353Z,10.20
2018-07-01T01:40:19.691Z,8.30
2018-07-01T01:42:54.379Z,9.37
2018-07-01T01:45:29.513Z,10.43
2018-07-01T01:48:02.670Z,12.87
2018-07-01T01:51:09.358Z,8.90
2018-07-01T01:53:56.674Z,8.93
2018-07-01T01:56:39.560Z,8.50
2018-07-01T01:59:16.583Z,9.97
2018-07-01T02:01:51.618Z,8.60
2018-07-01T02:04:38.815Z,8.83
2018-07-01T02:07:12.115Z,9.80
2018-07-01T02:09:40.934Z,9.83
2018-07-01T02:12:11.959Z,8.60
2018-07-01T02:14:44.680Z,7.97
2018-07-01T02:17:17.942Z,8.13
2018-07-01T02:19:47.178Z,8.93
2018-07-01T02:22:18.809Z,8.50
2018-07-01T02:24:49.322Z,9.43
2018-07-01T02:27:18.151Z,7.47
2018-07-01T02:29:46.940Z,6.90
2018-07-01T02:32:15.720Z,11.73
2018-07-01T02:34:44.484Z,9.03
2018-07-01T02:37:13.190Z,6.43
2018-07-01T02:39:42.278Z,7.03
2018-07-01T02:42:11.095Z,5.40
2018-07-01T02:44:39.790Z,7.10
2018-07-01T02:47:08.923Z,7.13
2018-07-01T02:49:37.639Z,6.03
2018-07-01T02:52:06.429Z,5.97
2018-07-01T02:54:35.178Z,5.30
2018-07-01T02:57:03.875Z,5.17
2018-07-01T02:59:32.643Z,4.63
2018-07-01T03:02:01.446Z,5.27
2018-07-01T03:04:30.172Z,4.93
2018-07-01T03:06:58.958Z,6.80
2018-07-01T03:09:27.782Z,7.07
2018-07-01T03:11:56.522Z,4.50
2018-07-01T03:14:25.297Z,5.33
2018-07-01T03:16:54.017Z,6.47
2018-07-01T03:19:22.761Z,7.50
2018-07-01T03:21:51.469Z,5.80
2018-07-01T03:24:20.176Z,4.23
2018-07-01T03:26:48.875Z,3.97
2018-07-01T03:29:17.659Z,3.23
2018-07-01T03:31:46.386Z,2.90
2018-07-01T03:34:15.070Z,3.87
2018-07-01T03:36:43.825Z,3.73
2018-07-01T03:39:12.647Z,5.17
2018-07-01T03:41:41.394Z,5.83
2018-07-01T03:44:10.155Z,9.17
2018-07-01T03:46:38.979Z,2.93
2018-07-01T03:49:07.982Z,5.40
2018-07-01T03:51:36.794Z,3.77
2018-07-01T03:54:05.986Z,2.53
2018-07-01T03:56:34.954Z,2.93
2018-07-01T03:59:03.723Z,3.17
2018-07-01T04:01:32.515Z,3.03
2018-07-01T04:04:01.260Z,2.80
2018-07-01T04:06:30.007Z,3.23
2018-07-01T04:08:58.781Z,3.50
2018-07-01T04:11:27.534Z,4.40
2018-07-01T04:13:56.290Z,3.20
2018-07-01T04:16:25.051Z,4.07
2018-07-01T04:18:53.826Z,4.50
2018-07-01T04:21:22.550Z,6.73
2018-07-01T04:23:51.306Z,5.60
2018-07-01T04:26:20.063Z,3.27
2018-07-01T04:28:48.858Z,3.47
2018-07-01T04:31:17.960Z,6.30
2018-07-01T04:33:47.102Z,5.20
2018-07-01T04:36:15.878Z,5.30
2018-07-01T04:38:44.573Z,6.43
2018-07-01T04:41:13.310Z,8.70
2018-07-01T04:43:42.082Z,6.80
2018-07-01T04:46:10.798Z,7.70
2018-07-01T04:48:39.538Z,5.23
2018-07-01T04:51:08.388Z,6.00
2018-07-01T04:53:37.122Z,4.97
2018-07-01T04:56:05.946Z,5.20
2018-07-01T04:58:34.778Z,5.30
2018-07-01T05:01:03.900Z,8.70
2018-07-01T05:03:32.630Z,3.40
2018-07-01T05:06:01.318Z,10.13
2018-07-01T05:08:30.075Z,3.27
2018-07-01T05:10:58.870Z,9.00
2018-07-01T05:13:27.663Z,4.87
2018-07-01T05:15:56.951Z,10.47
2018-07-01T05:18:25.650Z,5.33
2018-07-01T05:20:54.393Z,3.07
2018-07-01T05:23:23.120Z,9.60
2018-07-01T05:25:51.885Z,3.87
2018-07-01T05:28:20.594Z,13.40
2018-07-01T05:30:49.379Z,10.20
2018-07-01T05:33:18.479Z,9.33
2018-07-01T05:35:47.299Z,3.00
2018-07-01T05:38:16.114Z,6.57
2018-07-01T05:40:44.886Z,3.60
2018-07-01T05:43:13.712Z,6.90
2018-07-01T05:45:42.816Z,4.33
2018-07-01T05:48:11.585Z,3.37
2018-07-01T05:50:40.313Z,3.40
2018-07-01T05:53:09.035Z,4.23
2018-07-01T05:55:37.814Z,4.53
2018-07-01T05:58:06.922Z,5.07
2018-07-01T06:00:35.874Z,3.60
2018-07-01T06:03:05.067Z,2.90
2018-07-01T06:05:33.770Z,6.53
2018-07-01T06:08:02.663Z,3.93
2018-07-01T06:10:31.409Z,3.03
2018-07-01T06:13:00.218Z,4.97
2018-07-01T06:15:28.970Z,5.00
2018-07-01T06:17:57.690Z,3.97
2018-07-01T06:20:26.431Z,3.87
2018-07-01T06:22:55.245Z,3.93
2018-07-01T06:25:24.194Z,6.30
2018-07-01T06:27:52.969Z,5.27
2018-07-01T06:30:21.862Z,5.17
2018-07-01T06:32:50.598Z,8.23
2018-07-01T06:35:19.937Z,5.00
2018-07-01T06:37:48.710Z,5.07
2018-07-01T06:40:17.441Z,3.93
2018-07-01T06:42:46.274Z,6.17
2018-07-01T06:45:15.008Z,7.70
2018-07-01T06:47:43.812Z,4.20
2018-07-01T06:50:12.954Z,7.67
2018-07-01T06:52:41.686Z,7.83
2018-07-01T06:55:10.463Z,5.17
2018-07-01T06:57:39.207Z,3.97
2018-07-01T07:00:08.088Z,4.43
2018-07-01T07:02:37.238Z,3.97
2018-07-01T07:05:06.100Z,7.37
2018-07-01T07:07:34.934Z,4.33
2018-07-01T07:10:03.790Z,7.40
2018-07-01T07:12:33.292Z,9.83
2018-07-01T07:15:02.079Z,16.57
2018-07-01T07:17:30.838Z,5.43
2018-07-01T07:19:59.624Z,7.70
2018-07-01T07:22:28.395Z,7.47
2018-07-01T07:24:57.106Z,7.60
2018-07-01T07:27:25.885Z,3.77
2018-07-01T07:29:54.587Z,4.07
2018-07-01T07:32:23.281Z,5.40
2018-07-01T07:34:52.021Z,4.93
2018-07-01T07:37:20.794Z,6.73
2018-07-01T07:39:49.516Z,7.57
2018-07-01T07:42:18.264Z,6.37
2018-07-01T07:44:47.011Z,5.13
2018-07-01T07:47:15.962Z,7.00
2018-07-01T07:49:44.812Z,5.40
2018-07-01T07:52:13.589Z,6.10
2018-07-01T07:54:42.604Z,7.13
2018-07-01T07:57:11.353Z,8.20
2018-07-01T07:59:40.073Z,8.57
2018-07-01T08:02:09.131Z,5.73
2018-07-01T08:04:37.945Z,8.47
2018-07-01T08:07:06.879Z,8.33
2018-07-01T08:09:35.679Z,3.83
2018-07-01T08:12:04.563Z,8.20
2018-07-01T08:14:33.284Z,4.17
2018-07-01T08:17:02.069Z,8.43
2018-07-01T08:19:31.499Z,5.07
2018-07-01T08:22:00.298Z,8.53
2018-07-01T08:24:29.054Z,8.47
2018-07-01T08:26:57.804Z,6.10
2018-07-01T08:29:26.505Z,7.77
2018-07-01T08:31:55.263Z,5.27
2018-07-01T08:34:23.958Z,8.63
2018-07-01T08:36:53.077Z,8.17
2018-07-01T08:39:21.837Z,4.20
2018-07-01T08:42:04.145Z,3.70
2018-07-01T08:44:32.889Z,7.90
2018-07-01T08:47:01.666Z,4.27
2018-07-01T08:49:30.403Z,4.33
2018-07-01T08:51:59.886Z,6.80
2018-07-01T08:54:28.662Z,7.70
2018-07-01T08:56:57.426Z,12.60
2018-07-01T08:59:26.194Z,4.93
2018-07-01T09:01:54.953Z,6.80
2018-07-01T09:04:23.756Z,3.60
2018-07-01T09:06:52.492Z,4.50
2018-07-01T09:09:21.624Z,7.57
2018-07-01T09:11:50.435Z,9.60
2018-07-01T09:14:19.309Z,5.87
2018-07-01T09:16:48.090Z,3.80
2018-07-01T09:19:17.013Z,4.00
2018-07-01T09:21:45.796Z,4.27
2018-07-01T09:24:14.579Z,8.73
2018-07-01T09:26:43.446Z,5.03
2018-07-01T09:29:12.470Z,7.60
2018-07-01T09:31:41.198Z,4.03
2018-07-01T09:34:09.914Z,4.73
2018-07-01T09:36:38.698Z,4.20
2018-07-01T09:39:09.672Z,4.13
2018-07-01T09:41:38.455Z,4.27
2018-07-01T09:44:07.352Z,7.93
2018-07-01T09:46:36.761Z,6.93
2018-07-01T09:49:05.636Z,4.00
2018-07-01T09:51:34.714Z,7.43
2018-07-01T09:54:03.642Z,4.10
2018-07-01T09:56:32.432Z,7.00
2018-07-01T09:59:01.204Z,3.67
2018-07-01T10:01:31.025Z,4.03
2018-07-01T10:03:59.805Z,8.23
2018-07-01T10:06:28.987Z,5.73
2018-07-01T10:08:58.488Z,5.77
2018-07-01T10:11:27.582Z,7.00
2018-07-01T10:13:56.475Z,5.73
2018-07-01T10:16:25.228Z,5.93
2018-07-01T10:18:54.149Z,6.57
2018-07-01T10:21:23.013Z,6.13
2018-07-01T10:23:51.729Z,5.27
2018-07-01T10:26:20.477Z,5.63
2018-07-01T10:29:10.339Z,9.60
2018-07-01T10:31:39.740Z,7.90
2018-07-01T10:34:10.057Z,3.80
2018-07-01T10:36:38.881Z,9.47
2018-07-01T10:39:11.934Z,4.53
2018-07-01T10:41:40.767Z,8.23
2018-07-01T10:44:09.897Z,5.63
2018-07-01T10:46:39.018Z,3.63
2018-07-01T10:49:07.836Z,5.03
2018-07-01T10:51:36.697Z,4.63
2018-07-01T10:54:05.858Z,4.33
2018-07-01T10:56:34.657Z,4.20
2018-07-01T10:59:03.386Z,6.33
2018-07-01T11:01:32.133Z,3.30
2018-07-01T11:04:01.199Z,3.77
2018-07-01T11:06:30.319Z,5.57
2018-07-01T11:08:59.121Z,6.50
2018-07-01T11:11:27.833Z,6.17
2018-07-01T11:13:56.610Z,5.87
2018-07-01T11:16:25.752Z,3.37
2018-07-01T11:18:54.538Z,6.63
2018-07-01T11:21:23.283Z,3.23
2018-07-01T11:23:52.106Z,3.33
2018-07-01T11:26:20.852Z,10.93
2018-07-01T11:28:49.656Z,7.47
2018-07-01T11:31:18.437Z,5.30
2018-07-01T11:33:47.162Z,4.47
2018-07-01T11:36:16.026Z,6.00
2018-07-01T11:38:44.809Z,4.77
2018-07-01T11:41:13.530Z,5.93
2018-07-01T11:43:42.279Z,4.77
2018-07-01T11:46:11.076Z,3.50
2018-07-01T11:48:40.255Z,3.50
2018-07-01T11:51:09.011Z,4.03
2018-07-01T11:53:37.745Z,7.60
2018-07-01T11:56:06.957Z,3.53
2018-07-01T11:58:35.683Z,5.37
2018-07-01T12:01:04.464Z,5.80
2018-07-01T12:03:33.179Z,7.37
2018-07-01T12:06:01.926Z,7.77
2018-07-01T12:08:30.645Z,5.47
2018-07-01T12:10:59.396Z,4.47
2018-07-01T12:13:28.154Z,4.83
2018-07-01T12:15:56.879Z,3.47
2018-07-01T12:18:25.584Z,5.60
2018-07-01T12:20:54.288Z,7.03
2018-07-01T12:23:23.048Z,3.23
2018-07-01T12:25:52.023Z,3.73
2018-07-01T12:28:20.746Z,3.83
2018-07-01T12:30:49.562Z,4.97
2018-07-01T12:33:18.292Z,6.47
2018-07-01T12:35:47.016Z,4.63
2018-07-01T12:38:16.156Z,3.60
2018-07-01T12:40:44.888Z,7.30
2018-07-01T12:43:13.696Z,3.40
2018-07-01T12:45:42.515Z,3.20
2018-07-01T12:48:11.267Z,5.53
2018-07-01T12:50:40.082Z,3.93
2018-07-01T12:53:09.292Z,3.37
2018-07-01T12:55:38.066Z,3.90
2018-07-01T12:58:07.268Z,4.27
2018-07-01T13:00:35.974Z,5.93
2018-07-01T13:03:04.750Z,3.80
2018-07-01T13:05:33.502Z,5.93
2018-07-01T13:08:02.332Z,5.30
2018-07-01T13:10:31.081Z,5.70
2018-07-01T13:12:59.821Z,3.33
2018-07-01T13:15:28.582Z,3.80
2018-07-01T13:17:57.713Z,9.03
2018-07-01T13:20:26.820Z,3.63
2018-07-01T13:22:55.588Z,5.83
2018-07-01T13:25:24.308Z,6.60
2018-07-01T13:27:53.020Z,5.27
2018-07-01T13:30:21.758Z,4.60
2018-07-01T13:32:56.900Z,4.17
2018-07-01T13:35:25.632Z,3.63
2018-07-01T13:37:54.958Z,5.43
2018-07-01T13:40:23.721Z,9.50
2018-07-01T13:42:52.469Z,4.90
2018-07-01T13:45:21.478Z,4.03
2018-07-01T13:47:50.226Z,10.20
2018-07-01T13:50:18.938Z,3.90
2018-07-01T13:52:47.669Z,4.93
2018-07-01T13:55:16.462Z,4.30
2018-07-01T13:57:45.225Z,5.40
2018-07-01T14:00:14.055Z,5.40
2018-07-01T14:02:43.208Z,4.37
2018-07-01T14:05:11.887Z,4.00
2018-07-01T14:07:40.652Z,5.50
2018-07-01T14:10:09.474Z,3.97
2018-07-01T14:12:38.269Z,7.93
2018-07-01T14:15:07.090Z,4.87
2018-07-01T14:17:35.897Z,5.77
2018-07-01T14:20:05.332Z,4.33
2018-07-01T14:22:34.035Z,4.23
2018-07-01T14:25:02.803Z,5.10
2018-07-01T14:27:31.576Z,4.67
2018-07-01T14:30:00.338Z,4.07
2018-07-01T14:32:29.061Z,5.13
2018-07-01T14:34:57.807Z,4.17
2018-07-01T14:37:26.621Z,3.50
2018-07-01T14:39:55.359Z,4.97
2018-07-01T14:42:24.135Z,10.27
2018-07-01T14:44:53.156Z,8.93
2018-07-01T14:47:21.891Z,3.80
2018-07-01T14:49:50.653Z,5.10
2018-07-01T14:52:19.497Z,5.93
2018-07-01T14:54:48.400Z,6.33
2018-07-01T14:57:17.344Z,5.73
2018-07-01T14:59:46.113Z,4.10
2018-07-01T15:02:14.857Z,4.63
2018-07-01T15:04:43.595Z,7.53
2018-07-01T15:07:12.388Z,6.20
2018-07-01T15:09:41.139Z,4.43
2018-07-01T15:12:09.900Z,3.93
2018-07-01T15:14:39.235Z,4.63
2018-07-01T15:17:08.316Z,7.87
2018-07-01T15:19:37.128Z,3.77
2018-07-01T15:22:05.947Z,5.57
2018-07-01T15:24:34.780Z,4.37
2018-07-01T15:27:03.922Z,5.97
2018-07-01T15:29:32.605Z,3.97
2018-07-01T15:32:01.345Z,5.50
2018-07-01T15:34:30.445Z,3.80
2018-07-01T15:36:59.236Z,5.07
2018-07-01T15:39:27.928Z,3.87
2018-07-01T15:41:56.649Z,5.07
2018-07-01T15:44:25.401Z,7.13
2018-07-01T15:46:54.140Z,4.70
2018-07-01T15:49:22.865Z,8.33
2018-07-01T15:51:51.706Z,5.93
2018-07-01T15:54:20.426Z,4.67
2018-07-01T15:56:49.184Z,7.93
2018-07-01T15:59:18.206Z,5.63
2018-07-01T16:01:46.948Z,7.17
2018-07-01T16:04:15.769Z,7.23
2018-07-01T16:06:44.542Z,8.07
2018-07-01T16:09:13.393Z,7.17
2018-07-01T16:11:42.284Z,5.67
2018-07-01T16:14:11.158Z,7.90
2018-07-01T16:16:39.893Z,7.37
2018-07-01T16:19:08.759Z,6.60
2018-07-01T16:21:37.527Z,7.47
2018-07-01T16:24:06.691Z,10.50
2018-07-01T16:26:41.011Z,6.57
2018-07-01T16:29:10.241Z,4.27
2018-07-01T16:31:39.323Z,5.80
2018-07-01T16:34:08.125Z,6.27
2018-07-01T16:36:36.886Z,5.03
2018-07-01T16:39:09.459Z,4.40
2018-07-01T16:41:38.162Z,5.10
2018-07-01T16:44:07.988Z,5.97
2018-07-01T16:46:37.645Z,5.17
2018-07-01T16:49:06.435Z,6.43
2018-07-01T16:51:35.254Z,8.03
2018-07-01T16:54:04.385Z,6.13
2018-07-01T16:56:33.114Z,4.97
2018-07-01T16:59:01.932Z,6.17
2018-07-01T17:01:30.662Z,6.43
2018-07-01T17:03:59.350Z,6.20
2018-07-01T17:06:28.095Z,6.90
2018-07-01T17:08:56.811Z,5.40
2018-07-01T17:11:25.623Z,5.00
2018-07-01T17:13:54.666Z,5.77
2018-07-01T17:16:23.460Z,7.07
2018-07-01T17:18:52.212Z,5.83
2018-07-01T17:21:20.931Z,7.60
2018-07-01T17:23:49.662Z,6.67
2018-07-01T17:26:18.406Z,5.13
2018-07-01T17:28:47.629Z,6.67
2018-07-01T17:31:21.519Z,5.13
2018-07-01T17:33:50.267Z,4.90
2018-07-01T17:36:19.086Z,6.87
2018-07-01T17:38:47.811Z,9.77
2018-07-01T17:41:16.546Z,8.77
2018-07-01T17:43:45.319Z,8.83
2018-07-01T17:46:14.081Z,6.17
2018-07-01T17:48:42.809Z,6.07
2018-07-01T17:51:11.601Z,5.20
2018-07-01T17:54:01.429Z,6.40
2018-07-01T17:56:30.225Z,8.97
2018-07-01T17:58:59.881Z,6.67
2018-07-01T18:01:28.634Z,8.70
2018-07-01T18:03:57.384Z,6.50
2018-07-01T18:06:26.239Z,13.90
2018-07-01T18:08:55.018Z,11.37
2018-07-01T18:11:23.802Z,7.17
2018-07-01T18:13:52.556Z,7.40
2018-07-01T18:16:21.354Z,10.03
2018-07-01T18:18:50.125Z,7.27
2018-07-01T18:21:20.254Z,6.33
2018-07-01T18:24:19.491Z,9.47
2018-07-01T18:26:16.970Z,5.80
2018-07-01T18:28:55.767Z,7.97
2018-07-01T18:31:14.869Z,5.40
2018-07-01T18:33:43.588Z,7.07
2018-07-01T18:36:12.393Z,5.43
2018-07-01T18:38:41.333Z,8.07
2018-07-01T18:41:10.092Z,6.57
2018-07-01T18:43:38.916Z,6.17
2018-07-01T18:46:07.795Z,8.00
2018-07-01T18:48:36.797Z,6.73
2018-07-01T18:51:05.607Z,9.17
2018-07-01T18:53:34.308Z,13.33
2018-07-01T18:56:03.105Z,8.13
2018-07-01T18:58:38.286Z,11.37
2018-07-01T19:01:07.210Z,11.90
2018-07-01T19:03:35.972Z,11.90
2018-07-01T19:06:05.262Z,14.03
2018-07-01T19:08:34.045Z,10.17
2018-07-01T19:11:03.245Z,11.97
2018-07-01T19:13:32.418Z,14.83
2018-07-01T19:16:01.845Z,11.20
2018-07-01T19:18:30.905Z,10.73
2018-07-01T19:20:59.822Z,11.00
2018-07-01T19:23:29.035Z,15.87
2018-07-01T19:25:58.034Z,14.17
2018-07-01T19:28:27.393Z,10.53
2018-07-01T19:30:56.173Z,17.13
2018-07-01T19:33:24.913Z,9.63
2018-07-01T19:35:53.582Z,9.87
2018-07-01T19:38:22.373Z,11.40
2018-07-01T19:40:51.153Z,13.00
2018-07-01T19:43:20.012Z,10.07
2018-07-01T19:45:48.913Z,15.53
2018-07-01T19:48:17.800Z,14.13
2018-07-01T19:50:46.709Z,17.23
2018-07-01T19:53:15.482Z,10.80
2018-07-01T19:55:44.254Z,10.70
2018-07-01T19:58:13.697Z,14.17
2018-07-01T20:00:42.533Z,13.07
2018-07-01T20:03:11.622Z,14.40
2018-07-01T20:05:40.426Z,13.63
2018-07-01T20:08:09.227Z,14.50
2018-07-01T20:10:37.980Z,13.97
2018-07-01T20:13:07.112Z,20.67
2018-07-01T20:15:36.073Z,12.10
2018-07-01T20:18:05.221Z,11.57
2018-07-01T20:20:33.968Z,15.03
2018-07-01T20:23:02.761Z,11.87
2018-07-01T20:25:31.597Z,15.20
2018-07-01T20:28:00.447Z,13.03
2018-07-01T20:30:29.273Z,23.10
2018-07-01T20:32:58.303Z,16.97
2018-07-01T20:35:28.737Z,16.07
2018-07-01T20:37:57.473Z,14.90
2018-07-01T20:40:26.528Z,18.17
2018-07-01T20:42:55.281Z,13.20
2018-07-01T20:45:24.117Z,14.40
2018-07-01T20:47:59.146Z,12.00
2018-07-01T20:50:28.004Z,10.60
2018-07-01T20:52:57.302Z,15.90
2018-07-01T20:55:29.455Z,12.33
2018-07-01T20:57:58.251Z,13.23
2018-07-01T21:00:27.077Z,14.10
2018-07-01T21:02:55.825Z,17.53
2018-07-01T21:05:24.670Z,10.93
2018-07-01T21:07:53.590Z,12.43
2018-07-01T21:10:22.326Z,11.67
2018-07-01T21:12:51.123Z,15.67
2018-07-01T21:15:19.868Z,20.67
2018-07-01T21:17:48.635Z,14.73
2018-07-01T21:20:17.562Z,13.57
2018-07-01T21:22:46.790Z,12.80
2018-07-01T21:25:15.536Z,11.57
2018-07-01T21:27:44.341Z,18.37
2018-07-01T21:30:13.293Z,12.63
2018-07-01T21:32:42.075Z,14.67
2018-07-01T21:35:11.284Z,13.13
2018-07-01T21:37:40.209Z,14.70
2018-07-01T21:40:09.141Z,12.63
2018-07-01T21:42:38.087Z,12.70
2018-07-01T21:45:07.714Z,13.43
2018-07-01T21:47:36.714Z,13.67
2018-07-01T21:50:06.204Z,12.20
2018-07-01T21:52:35.150Z,12.33
2018-07-01T21:55:04.182Z,11.63
2018-07-01T21:57:32.978Z,12.57
2018-07-01T22:00:01.950Z,13.13
2018-07-01T22:02:30.974Z,15.57
2018-07-01T22:04:59.722Z,11.20
2018-07-01T22:07:28.662Z,11.27
2018-07-01T22:09:57.401Z,11.57
2018-07-01T22:12:37.517Z,11.47
2018-07-01T22:16:16.273Z,12.03
2018-07-01T22:18:45.247Z,12.37
2018-07-01T22:21:14.234Z,13.73
2018-07-01T22:23:43.207Z,12.13
2018-07-01T22:26:12.117Z,12.30
2018-07-01T22:28:41.183Z,12.77
2018-07-01T22:31:10.171Z,12.93
2018-07-01T22:33:39.094Z,12.57
2018-07-01T22:36:08.371Z,12.93
2018-07-01T22:38:37.327Z,12.70
2018-07-01T22:41:06.243Z,8.70
2018-07-01T22:43:35.194Z,9.63
2018-07-01T22:46:04.152Z,13.23
2018-07-01T22:48:33.149Z,12.13
2018-07-01T22:51:02.069Z,10.03
2018-07-01T22:53:30.987Z,9.90
2018-07-01T22:55:59.729Z,11.67
2018-07-01T22:58:28.503Z,9.37
2018-07-01T23:00:57.482Z,10.67
2018-07-01T23:03:26.490Z,12.30
2018-07-01T23:05:55.406Z,9.40
2018-07-01T23:08:24.406Z,9.17
2018-07-01T23:10:53.358Z,9.87
2018-07-01T23:13:22.145Z,9.87
2018-07-01T23:15:51.069Z,8.90
2018-07-01T23:18:20.006Z,13.37
2018-07-01T23:20:48.781Z,10.47
2018-07-01T23:23:17.774Z,14.50
2018-07-01T23:25:46.762Z,12.50
2018-07-01T23:28:15.715Z,12.67
2018-07-01T23:30:44.657Z,15.57
2018-07-01T23:33:13.634Z,13.73
2018-07-01T23:35:42.574Z,13.00
2018-07-01T23:38:11.493Z,12.60
2018-07-01T23:40:40.454Z,14.23
2018-07-01T23:43:09.353Z,13.27
2018-07-01T23:45:38.282Z,17.53
2018-07-01T23:48:07.374Z,13.30
2018-07-01T23:50:36.181Z,13.50
2018-07-01T23:53:05.157Z,17.70
2018-07-01T23:55:34.065Z,12.73
2018-07-01T23:58:03.036Z,13.57
